sensor_id;sensor_type;location;lat;lon;timestamp;pressure;altitude;pressure_sealevel;temperature;humidity
4085;BME280;2057;50.858;6.572;2023-03-19T00:01:04;99945.72;;;10.35;100.00
4085;BME280;2057;50.858;6.572;2023-03-19T00:03:30;99940.69;;;10.36;100.00
4085;BME280;2057;50.858;6.572;2023-03-19T00:05:56;99945.00;;;10.38;100.00
4085;BME280;2057;50.858;6.572;2023-03-19T00:08:21;99941.38;;;10.32;100.00
4085;BME280;2057;50.858;6.572;2023-03-19T00:10:47;99942.88;;;10.27;100.00
4085;BME280;2057;50.858;6.572;2023-03-19T00:13:12;99936.69;;;10.20;100.00
4085;BME280;2057;50.858;6.572;2023-03-19T00:15:37;99943.50;;;10.22;100.00
4085;BME280;2057;50.858;6.572;2023-03-19T00:18:05;99947.09;;;10.07;100.00
4085;BME280;2057;50.858;6.572;2023-03-19T00:20:31;99947.25;;;10.10;100.00
4085;BME280;2057;50.858;6.572;2023-03-19T00:22:57;99951.13;;;10.02;100.00
4085;BME280;2057;50.858;6.572;2023-03-19T00:25:22;99951.06;;;10.00;100.00
4085;BME280;2057;50.858;6.572;2023-03-19T00:27:48;99949.00;;;9.92;100.00
4085;BME280;2057;50.858;6.572;2023-03-19T00:30:13;99942.00;;;9.86;100.00
4085;BME280;2057;50.858;6.572;2023-03-19T00:32:39;99956.19;;;9.82;100.00
4085;BME280;2057;50.858;6.572;2023-03-19T00:35:05;99945.47;;;9.88;100.00
4085;BME280;2057;50.858;6.572;2023-03-19T00:37:34;99943.66;;;9.85;100.00
4085;BME280;2057;50.858;6.572;2023-03-19T00:40:00;99942.56;;;10.00;100.00
4085;BME280;2057;50.858;6.572;2023-03-19T00:42:26;99937.84;;;10.08;100.00
4085;BME280;2057;50.858;6.572;2023-03-19T00:44:51;99935.75;;;10.18;99.73
4085;BME280;2057;50.858;6.572;2023-03-19T00:47:17;99941.56;;;10.16;99.41
4085;BME280;2057;50.858;6.572;2023-03-19T00:49:42;99939.97;;;10.18;99.13
4085;BME280;2057;50.858;6.572;2023-03-19T00:52:07;99940.69;;;10.15;98.81
4085;BME280;2057;50.858;6.572;2023-03-19T00:54:33;99937.94;;;10.11;98.91
4085;BME280;2057;50.858;6.572;2023-03-19T00:56:59;99941.81;;;10.22;98.57
4085;BME280;2057;50.858;6.572;2023-03-19T00:59:24;99945.22;;;10.23;97.74
4085;BME280;2057;50.858;6.572;2023-03-19T01:01:50;99943.69;;;10.26;97.86
4085;BME280;2057;50.858;6.572;2023-03-19T01:04:16;99951.28;;;10.26;98.12
4085;BME280;2057;50.858;6.572;2023-03-19T01:06:42;99941.25;;;10.29;98.09
4085;BME280;2057;50.858;6.572;2023-03-19T01:09:08;99946.41;;;10.31;97.71
4085;BME280;2057;50.858;6.572;2023-03-19T01:11:34;99941.38;;;10.32;97.46
4085;BME280;2057;50.858;6.572;2023-03-19T01:14:00;99944.78;;;10.33;97.46
4085;BME280;2057;50.858;6.572;2023-03-19T01:16:27;99947.22;;;10.30;98.02
4085;BME280;2057;50.858;6.572;2023-03-19T01:18:52;99941.16;;;10.26;98.42
4085;BME280;2057;50.858;6.572;2023-03-19T01:21:18;99952.34;;;10.31;98.70
4085;BME280;2057;50.858;6.572;2023-03-19T01:23:44;99942.88;;;10.27;98.29
4085;BME280;2057;50.858;6.572;2023-03-19T01:26:09;99938.34;;;10.20;99.44
4085;BME280;2057;50.858;6.572;2023-03-19T01:28:35;99943.56;;;10.23;98.87
4085;BME280;2057;50.858;6.572;2023-03-19T01:31:05;99941.63;;;10.17;99.40
4085;BME280;2057;50.858;6.572;2023-03-19T01:33:30;99941.84;;;10.02;100.00
4085;BME280;2057;50.858;6.572;2023-03-19T01:35:56;99938.16;;;9.75;100.00
4085;BME280;2057;50.858;6.572;2023-03-19T01:38:23;99934.53;;;9.69;100.00
4085;BME280;2057;50.858;6.572;2023-03-19T01:40:49;99934.94;;;9.79;100.00
4085;BME280;2057;50.858;6.572;2023-03-19T01:43:20;99935.19;;;9.85;100.00
4085;BME280;2057;50.858;6.572;2023-03-19T01:45:47;99937.53;;;9.80;100.00
4085;BME280;2057;50.858;6.572;2023-03-19T01:50:56;99932.94;;;9.71;100.00
4085;BME280;2057;50.858;6.572;2023-03-19T01:53:26;99936.66;;;9.60;100.00
4085;BME280;2057;50.858;6.572;2023-03-19T01:55:55;99931.78;;;9.65;100.00
4085;BME280;2057;50.858;6.572;2023-03-19T01:58:23;99926.66;;;9.63;100.00
4085;BME280;2057;50.858;6.572;2023-03-19T02:00:49;99930.53;;;9.75;100.00
4085;BME280;2057;50.858;6.572;2023-03-19T02:03:15;99930.66;;;9.78;100.00
4085;BME280;2057;50.858;6.572;2023-03-19T02:05:43;99930.09;;;9.85;100.00
4085;BME280;2057;50.858;6.572;2023-03-19T02:08:11;99926.78;;;9.86;100.00
4085;BME280;2057;50.858;6.572;2023-03-19T02:10:39;99932.19;;;9.94;100.00
4085;BME280;2057;50.858;6.572;2023-03-19T02:13:05;99929.97;;;10.01;100.00
4085;BME280;2057;50.858;6.572;2023-03-19T02:15:31;99928.88;;;10.16;100.00
4085;BME280;2057;50.858;6.572;2023-03-19T02:17:57;99932.88;;;10.11;100.00
4085;BME280;2057;50.858;6.572;2023-03-19T02:20:29;99938.22;;;10.17;100.00
4085;BME280;2057;50.858;6.572;2023-03-19T02:28:12;99928.75;;;10.34;100.00
4085;BME280;2057;50.858;6.572;2023-03-19T02:30:41;99925.25;;;10.51;100.00
4085;BME280;2057;50.858;6.572;2023-03-19T02:33:12;99921.94;;;10.52;100.00
4085;BME280;2057;50.858;6.572;2023-03-19T02:35:38;99927.50;;;10.65;100.00
4085;BME280;2057;50.858;6.572;2023-03-19T02:38:04;99930.09;;;10.66;100.00
4085;BME280;2057;50.858;6.572;2023-03-19T02:40:37;99927.75;;;10.50;100.00
4085;BME280;2057;50.858;6.572;2023-03-19T02:43:05;99924.84;;;10.41;100.00
4085;BME280;2057;50.858;6.572;2023-03-19T02:45:31;99922.44;;;10.44;100.00
4085;BME280;2057;50.858;6.572;2023-03-19T02:47:56;99924.31;;;10.49;100.00
4085;BME280;2057;50.858;6.572;2023-03-19T02:50:21;99930.84;;;10.43;100.00
4085;BME280;2057;50.858;6.572;2023-03-19T02:52:47;99930.72;;;10.40;100.00
4085;BME280;2057;50.858;6.572;2023-03-19T02:55:12;99935.41;;;10.51;100.00
4085;BME280;2057;50.858;6.572;2023-03-19T02:57:37;99934.28;;;10.45;100.00
4085;BME280;2057;50.858;6.572;2023-03-19T03:00:05;99934.28;;;10.45;100.00
4085;BME280;2057;50.858;6.572;2023-03-19T03:02:30;99928.75;;;10.34;100.00
4085;BME280;2057;50.858;6.572;2023-03-19T03:04:56;99925.78;;;10.43;100.00
4085;BME280;2057;50.858;6.572;2023-03-19T03:07:22;99929.06;;;10.40;100.00
4085;BME280;2057;50.858;6.572;2023-03-19T03:09:47;99935.28;;;10.27;100.00
4085;BME280;2057;50.858;6.572;2023-03-19T03:12:13;99927.72;;;10.29;100.00
4085;BME280;2057;50.858;6.572;2023-03-19T03:14:38;99931.91;;;10.28;100.00
4085;BME280;2057;50.858;6.572;2023-03-19T03:17:04;99935.00;;;10.21;100.00
4085;BME280;2057;50.858;6.572;2023-03-19T03:19:30;99936.59;;;10.19;100.00
4085;BME280;2057;50.858;6.572;2023-03-19T03:21:55;99935.56;;;10.14;100.00
4085;BME280;2057;50.858;6.572;2023-03-19T03:24:20;99946.63;;;10.16;100.00
4085;BME280;2057;50.858;6.572;2023-03-19T03:26:46;99949.72;;;10.09;100.00
4085;BME280;2057;50.858;6.572;2023-03-19T03:29:11;99946.72;;;9.98;100.00
4085;BME280;2057;50.858;6.572;2023-03-19T03:31:36;99949.94;;;9.94;100.00
4085;BME280;2057;50.858;6.572;2023-03-19T03:34:02;99950.53;;;9.88;100.00
4085;BME280;2057;50.858;6.572;2023-03-19T03:36:27;99948.53;;;9.81;100.00
4085;BME280;2057;50.858;6.572;2023-03-19T03:38:53;99956.28;;;9.84;100.00
4085;BME280;2057;50.858;6.572;2023-03-19T03:41:19;99954.34;;;9.78;100.00
4085;BME280;2057;50.858;6.572;2023-03-19T03:43:44;99957.59;;;9.76;100.00
4085;BME280;2057;50.858;6.572;2023-03-19T03:46:10;99954.75;;;9.68;100.00
4085;BME280;2057;50.858;6.572;2023-03-19T03:48:35;99954.28;;;9.57;100.00
4085;BME280;2057;50.858;6.572;2023-03-19T03:51:00;99967.44;;;9.50;100.00
4085;BME280;2057;50.858;6.572;2023-03-19T03:53:27;99961.69;;;9.52;100.00
4085;BME280;2057;50.858;6.572;2023-03-19T03:55:52;99955.06;;;9.56;100.00
4085;BME280;2057;50.858;6.572;2023-03-19T03:58:18;99947.00;;;9.65;100.00
4085;BME280;2057;50.858;6.572;2023-03-19T04:00:43;99947.47;;;9.76;100.00
4085;BME280;2057;50.858;6.572;2023-03-19T04:03:10;99949.81;;;9.71;100.00
4085;BME280;2057;50.858;6.572;2023-03-19T04:05:35;99953.22;;;9.71;100.00
4085;BME280;2057;50.858;6.572;2023-03-19T04:08:02;99952.72;;;9.80;100.00
4085;BME280;2057;50.858;6.572;2023-03-19T04:10:28;99956.75;;;9.75;100.00
4085;BME280;2057;50.858;6.572;2023-03-19T04:12:53;99957.22;;;9.66;100.00
4085;BME280;2057;50.858;6.572;2023-03-19T04:15:18;99952.53;;;9.56;100.00
4085;BME280;2057;50.858;6.572;2023-03-19T04:17:44;99957.59;;;9.56;100.00
4085;BME280;2057;50.858;6.572;2023-03-19T04:20:12;99964.13;;;9.51;100.00
4085;BME280;2057;50.858;6.572;2023-03-19T04:22:38;99973.03;;;9.61;100.00
4085;BME280;2057;50.858;6.572;2023-03-19T04:25:04;99974.75;;;9.62;100.00
4085;BME280;2057;50.858;6.572;2023-03-19T04:27:32;99973.81;;;9.60;100.00
4085;BME280;2057;50.858;6.572;2023-03-19T04:29:57;99971.72;;;9.51;100.00
4085;BME280;2057;50.858;6.572;2023-03-19T04:32:23;99971.50;;;9.46;100.00
4085;BME280;2057;50.858;6.572;2023-03-19T04:34:51;99979.91;;;9.45;100.00
4085;BME280;2057;50.858;6.572;2023-03-19T04:37:16;99976.94;;;9.54;100.00
4085;BME280;2057;50.858;6.572;2023-03-19T04:39:42;99985.66;;;9.41;100.00
4085;BME280;2057;50.858;6.572;2023-03-19T04:42:08;99992.31;;;9.39;100.00
4085;BME280;2057;50.858;6.572;2023-03-19T04:44:34;99989.88;;;9.40;100.00
4085;BME280;2057;50.858;6.572;2023-03-19T04:46:59;99996.59;;;9.40;100.00
4085;BME280;2057;50.858;6.572;2023-03-19T04:49:25;99994.78;;;9.37;100.00
4085;BME280;2057;50.858;6.572;2023-03-19T04:51:51;99989.13;;;9.43;100.00
4085;BME280;2057;50.858;6.572;2023-03-19T04:54:16;99986.81;;;9.48;100.00
4085;BME280;2057;50.858;6.572;2023-03-19T04:56:42;99984.13;;;9.45;100.00
4085;BME280;2057;50.858;6.572;2023-03-19T04:59:07;99987.25;;;9.39;100.00
4085;BME280;2057;50.858;6.572;2023-03-19T05:01:32;99981.84;;;9.31;100.00
4085;BME280;2057;50.858;6.572;2023-03-19T05:03:58;99986.31;;;9.37;100.00
4085;BME280;2057;50.858;6.572;2023-03-19T05:06:23;99983.59;;;9.52;100.00
4085;BME280;2057;50.858;6.572;2023-03-19T05:08:48;99989.34;;;9.48;100.00
4085;BME280;2057;50.858;6.572;2023-03-19T05:11:14;99991.78;;;9.46;100.00
4085;BME280;2057;50.858;6.572;2023-03-19T05:13:39;99996.94;;;9.48;100.00
4085;BME280;2057;50.858;6.572;2023-03-19T05:16:05;99996.28;;;9.52;100.00
4085;BME280;2057;50.858;6.572;2023-03-19T05:18:31;99999.00;;;9.56;100.00
4085;BME280;2057;50.858;6.572;2023-03-19T05:20:57;99994.16;;;9.61;100.00
4085;BME280;2057;50.858;6.572;2023-03-19T05:23:22;99996.28;;;9.52;100.00
4085;BME280;2057;50.858;6.572;2023-03-19T05:25:48;99987.44;;;9.62;100.00
4085;BME280;2057;50.858;6.572;2023-03-19T05:28:13;99995.53;;;9.54;100.00
4085;BME280;2057;50.858;6.572;2023-03-19T05:30:39;99998.53;;;9.46;100.00
4085;BME280;2057;50.858;6.572;2023-03-19T05:33:05;100006.34;;;9.50;100.00
4085;BME280;2057;50.858;6.572;2023-03-19T05:35:31;100001.00;;;9.44;100.00
4085;BME280;2057;50.858;6.572;2023-03-19T05:37:56;100005.72;;;9.36;100.00
4085;BME280;2057;50.858;6.572;2023-03-19T05:40:22;100006.44;;;9.34;100.00
4085;BME280;2057;50.858;6.572;2023-03-19T05:42:48;100015.88;;;9.18;100.00
4085;BME280;2057;50.858;6.572;2023-03-19T05:45:13;100026.59;;;9.13;100.00
4085;BME280;2057;50.858;6.572;2023-03-19T05:47:39;100018.75;;;9.08;100.00
4085;BME280;2057;50.858;6.572;2023-03-19T05:50:06;100025.28;;;9.21;100.00
4085;BME280;2057;50.858;6.572;2023-03-19T05:52:32;100017.69;;;9.21;100.00
4085;BME280;2057;50.858;6.572;2023-03-19T05:54:57;100017.78;;;9.24;100.00
4085;BME280;2057;50.858;6.572;2023-03-19T05:57:23;100022.94;;;9.07;100.00
4085;BME280;2057;50.858;6.572;2023-03-19T05:59:48;100035.25;;;9.00;100.00
4085;BME280;2057;50.858;6.572;2023-03-19T06:02:14;100030.84;;;9.14;100.00
4085;BME280;2057;50.858;6.572;2023-03-19T06:04:39;100035.03;;;9.13;100.00
4085;BME280;2057;50.858;6.572;2023-03-19T06:07:05;100035.13;;;9.15;100.00
4085;BME280;2057;50.858;6.572;2023-03-19T06:09:33;100039.75;;;9.23;100.00
4085;BME280;2057;50.858;6.572;2023-03-19T06:11:59;100044.34;;;9.32;100.00
4085;BME280;2057;50.858;6.572;2023-03-19T06:14:24;100048.63;;;9.33;100.00
4085;BME280;2057;50.858;6.572;2023-03-19T06:16:50;100041.25;;;9.38;100.00
4085;BME280;2057;50.858;6.572;2023-03-19T06:19:15;100040.59;;;9.42;100.00
4085;BME280;2057;50.858;6.572;2023-03-19T06:21:40;100046.25;;;9.36;100.00
4085;BME280;2057;50.858;6.572;2023-03-19T06:24:06;100042.84;;;9.36;100.00
4085;BME280;2057;50.858;6.572;2023-03-19T06:26:34;100040.53;;;9.40;100.00
4085;BME280;2057;50.858;6.572;2023-03-19T06:29:00;100045.47;;;9.37;100.00
4085;BME280;2057;50.858;6.572;2023-03-19T06:31:25;100043.88;;;9.39;100.00
4085;BME280;2057;50.858;6.572;2023-03-19T06:33:52;100047.63;;;9.48;100.00
4085;BME280;2057;50.858;6.572;2023-03-19T06:36:17;100044.50;;;9.53;100.00
4085;BME280;2057;50.858;6.572;2023-03-19T06:38:43;100045.50;;;9.57;100.00
4085;BME280;2057;50.858;6.572;2023-03-19T06:41:08;100049.56;;;9.53;100.00
4085;BME280;2057;50.858;6.572;2023-03-19T06:43:33;100059.63;;;9.52;100.00
4085;BME280;2057;50.858;6.572;2023-03-19T06:46:04;100060.41;;;9.51;100.00
4085;BME280;2057;50.858;6.572;2023-03-19T06:48:31;100066.38;;;9.51;100.00
4085;BME280;2057;50.858;6.572;2023-03-19T06:50:57;100055.22;;;9.48;100.00
4085;BME280;2057;50.858;6.572;2023-03-19T06:53:23;100067.22;;;9.52;100.00
4085;BME280;2057;50.858;6.572;2023-03-19T06:55:48;100067.91;;;9.48;100.00
4085;BME280;2057;50.858;6.572;2023-03-19T06:58:16;100067.38;;;9.55;100.00
4085;BME280;2057;50.858;6.572;2023-03-19T07:00:41;100067.66;;;9.61;100.00
4085;BME280;2057;50.858;6.572;2023-03-19T07:03:08;100069.97;;;9.75;100.00
4085;BME280;2057;50.858;6.572;2023-03-19T07:05:33;100068.44;;;9.78;100.00
4085;BME280;2057;50.858;6.572;2023-03-19T07:07:59;100067.09;;;9.86;100.00
4085;BME280;2057;50.858;6.572;2023-03-19T07:10:24;100073.38;;;9.95;100.00
4085;BME280;2057;50.858;6.572;2023-03-19T07:12:50;100077.19;;;10.04;100.00
4085;BME280;2057;50.858;6.572;2023-03-19T07:15:15;100080.00;;;10.11;100.00
4085;BME280;2057;50.858;6.572;2023-03-19T07:17:44;100093.06;;;10.20;100.00
4085;BME280;2057;50.858;6.572;2023-03-19T07:20:10;100092.63;;;10.29;100.00
4085;BME280;2057;50.858;6.572;2023-03-19T07:22:35;100093.88;;;10.37;100.00
4085;BME280;2057;50.858;6.572;2023-03-19T07:25:01;100087.00;;;10.36;100.00
4085;BME280;2057;50.858;6.572;2023-03-19T07:27:29;100095.00;;;10.44;100.00
4085;BME280;2057;50.858;6.572;2023-03-19T07:29:54;100097.66;;;10.47;100.00
4085;BME280;2057;50.858;6.572;2023-03-19T07:32:20;100098.66;;;10.50;100.00
4085;BME280;2057;50.858;6.572;2023-03-19T07:34:49;100092.97;;;10.56;100.00
4085;BME280;2057;50.858;6.572;2023-03-19T07:37:14;100088.84;;;10.58;100.00
4085;BME280;2057;50.858;6.572;2023-03-19T07:39:39;100098.19;;;10.59;100.00
4085;BME280;2057;50.858;6.572;2023-03-19T07:42:05;100096.84;;;10.67;100.00
4085;BME280;2057;50.858;6.572;2023-03-19T07:44:31;100098.69;;;10.72;100.00
4085;BME280;2057;50.858;6.572;2023-03-19T07:46:56;100097.88;;;10.73;100.00
4085;BME280;2057;50.858;6.572;2023-03-19T07:49:22;100106.63;;;10.79;100.00
4085;BME280;2057;50.858;6.572;2023-03-19T07:51:47;100098.09;;;10.77;100.00
4085;BME280;2057;50.858;6.572;2023-03-19T07:54:16;100098.16;;;10.79;100.00
4085;BME280;2057;50.858;6.572;2023-03-19T07:56:51;100100.75;;;10.80;100.00
4085;BME280;2057;50.858;6.572;2023-03-19T07:59:17;100104.09;;;10.79;100.00
4085;BME280;2057;50.858;6.572;2023-03-19T08:01:42;100107.13;;;10.71;100.00
4085;BME280;2057;50.858;6.572;2023-03-19T08:04:07;100105.69;;;10.77;100.00
4085;BME280;2057;50.858;6.572;2023-03-19T08:06:33;100101.22;;;10.72;100.00
4085;BME280;2057;50.858;6.572;2023-03-19T08:08:58;100107.94;;;10.70;100.00
4085;BME280;2057;50.858;6.572;2023-03-19T08:11:23;100109.03;;;10.76;100.00
4085;BME280;2057;50.858;6.572;2023-03-19T08:13:49;100105.78;;;10.79;100.00
4085;BME280;2057;50.858;6.572;2023-03-19T08:16:14;100104.47;;;10.89;100.00
4085;BME280;2057;50.858;6.572;2023-03-19T08:18:40;100107.28;;;10.95;100.00
4085;BME280;2057;50.858;6.572;2023-03-19T08:21:06;100108.25;;;10.98;100.00
4085;BME280;2057;50.858;6.572;2023-03-19T08:23:31;100115.97;;;11.00;100.00
4085;BME280;2057;50.858;6.572;2023-03-19T08:25:57;100114.53;;;11.07;100.00
4085;BME280;2057;50.858;6.572;2023-03-19T08:28:22;100116.41;;;11.11;100.00
4085;BME280;2057;50.858;6.572;2023-03-19T08:30:48;100118.31;;;11.17;100.00
4085;BME280;2057;50.858;6.572;2023-03-19T08:33:15;100122.31;;;11.33;100.00
4085;BME280;2057;50.858;6.572;2023-03-19T08:35:40;100123.06;;;11.51;100.00
4085;BME280;2057;50.858;6.572;2023-03-19T08:38:06;100117.66;;;11.65;100.00
4085;BME280;2057;50.858;6.572;2023-03-19T08:40:31;100122.97;;;11.71;100.00
4085;BME280;2057;50.858;6.572;2023-03-19T08:42:57;100132.69;;;11.81;100.00
4085;BME280;2057;50.858;6.572;2023-03-19T08:45:23;100126.09;;;11.86;100.00
4085;BME280;2057;50.858;6.572;2023-03-19T08:47:48;100130.66;;;11.95;100.00
4085;BME280;2057;50.858;6.572;2023-03-19T08:50:15;100129.06;;;11.97;100.00
4085;BME280;2057;50.858;6.572;2023-03-19T08:52:41;100119.63;;;11.95;100.00
4085;BME280;2057;50.858;6.572;2023-03-19T08:55:07;100119.88;;;12.01;100.00
4085;BME280;2057;50.858;6.572;2023-03-19T08:57:33;100114.91;;;12.04;100.00
4085;BME280;2057;50.858;6.572;2023-03-19T08:59:59;100115.84;;;12.06;100.00
4085;BME280;2057;50.858;6.572;2023-03-19T09:02:25;100125.41;;;12.13;100.00
4085;BME280;2057;50.858;6.572;2023-03-19T09:04:50;100118.41;;;12.30;100.00
4085;BME280;2057;50.858;6.572;2023-03-19T09:07:16;100131.19;;;12.32;100.00
4085;BME280;2057;50.858;6.572;2023-03-19T09:09:44;100127.09;;;12.37;100.00
4085;BME280;2057;50.858;6.572;2023-03-19T09:12:12;100126.50;;;12.44;100.00
4085;BME280;2057;50.858;6.572;2023-03-19T09:14:38;100124.38;;;12.55;98.71
4085;BME280;2057;50.858;6.572;2023-03-19T09:17:04;100128.03;;;12.63;96.72
4085;BME280;2057;50.858;6.572;2023-03-19T09:19:30;100136.78;;;12.70;96.44
4085;BME280;2057;50.858;6.572;2023-03-19T09:21:56;100136.19;;;13.03;96.02
4085;BME280;2057;50.858;6.572;2023-03-19T09:24:21;100133.72;;;13.06;94.61
4085;BME280;2057;50.858;6.572;2023-03-19T09:26:48;100136.03;;;12.98;96.02
4085;BME280;2057;50.858;6.572;2023-03-19T09:29:14;100134.31;;;12.99;93.77
4085;BME280;2057;50.858;6.572;2023-03-19T09:31:40;100144.22;;;12.90;93.02
4085;BME280;2057;50.858;6.572;2023-03-19T09:34:06;100144.28;;;12.91;92.86
4085;BME280;2057;50.858;6.572;2023-03-19T09:36:33;100147.69;;;12.92;92.52
4085;BME280;2057;50.858;6.572;2023-03-19T09:38:58;100145.13;;;12.92;94.35
4085;BME280;2057;50.858;6.572;2023-03-19T09:44:12;100147.00;;;12.71;96.56
4085;BME280;2057;50.858;6.572;2023-03-19T09:46:50;100146.34;;;12.77;95.55
4085;BME280;2057;50.858;6.572;2023-03-19T09:49:29;100148.53;;;12.92;96.08
4085;BME280;2057;50.858;6.572;2023-03-19T09:54:45;100145.69;;;12.83;97.09
4085;BME280;2057;50.858;6.572;2023-03-19T09:57:20;100146.56;;;12.83;93.83
4085;BME280;2057;50.858;6.572;2023-03-19T09:59:46;100151.00;;;12.89;94.25
4085;BME280;2057;50.858;6.572;2023-03-19T10:13:06;100156.06;;;13.13;94.59
4085;BME280;2057;50.858;6.572;2023-03-19T10:15:35;100156.16;;;13.16;94.56
4085;BME280;2057;50.858;6.572;2023-03-19T10:18:07;100157.88;;;13.17;95.40
4085;BME280;2057;50.858;6.572;2023-03-19T10:23:47;100163.75;;;13.15;96.19
4085;BME280;2057;50.858;6.572;2023-03-19T10:26:18;100174.25;;;12.98;97.54
4085;BME280;2057;50.858;6.572;2023-03-19T10:28:54;100166.91;;;13.08;99.96
4085;BME280;2057;50.858;6.572;2023-03-19T10:36:47;100180.16;;;12.97;100.00
4085;BME280;2057;50.858;6.572;2023-03-19T10:39:14;100180.81;;;12.92;100.00
4085;BME280;2057;50.858;6.572;2023-03-19T10:44:33;100172.56;;;12.99;100.00
4085;BME280;2057;50.858;6.572;2023-03-19T10:47:18;100181.28;;;13.06;100.00
4085;BME280;2057;50.858;6.572;2023-03-19T10:49:44;100179.19;;;12.94;100.00
4085;BME280;2057;50.858;6.572;2023-03-19T10:52:23;100177.16;;;13.09;100.00
4085;BME280;2057;50.858;6.572;2023-03-19T10:54:53;100176.34;;;13.10;100.00
4085;BME280;2057;50.858;6.572;2023-03-19T10:57:28;100175.88;;;13.22;100.00
4085;BME280;2057;50.858;6.572;2023-03-19T11:00:01;100187.69;;;13.20;100.00
4085;BME280;2057;50.858;6.572;2023-03-19T11:02:31;100178.56;;;13.27;97.97
4085;BME280;2057;50.858;6.572;2023-03-19T11:07:38;100183.56;;;13.24;93.70
4085;BME280;2057;50.858;6.572;2023-03-19T11:10:04;100182.00;;;13.53;92.82
4085;BME280;2057;50.858;6.572;2023-03-19T11:12:36;100185.38;;;13.52;92.24
4085;BME280;2057;50.858;6.572;2023-03-19T11:15:03;100180.13;;;13.75;91.23
4085;BME280;2057;50.858;6.572;2023-03-19T11:17:47;100183.63;;;13.78;90.74
4085;BME280;2057;50.858;6.572;2023-03-19T11:20:31;100176.69;;;13.74;89.82
4085;BME280;2057;50.858;6.572;2023-03-19T11:22:59;100181.91;;;13.77;90.45
4085;BME280;2057;50.858;6.572;2023-03-19T11:25:37;100181.88;;;13.76;88.56
4085;BME280;2057;50.858;6.572;2023-03-19T11:28:23;100183.38;;;13.71;89.05
4085;BME280;2057;50.858;6.572;2023-03-19T11:31:14;100185.34;;;13.78;88.72
4085;BME280;2057;50.858;6.572;2023-03-19T11:36:49;100186.16;;;13.77;88.66
4085;BME280;2057;50.858;6.572;2023-03-19T11:39:26;100189.56;;;13.77;89.68
4085;BME280;2057;50.858;6.572;2023-03-19T11:53:13;100175.44;;;14.48;88.19
4085;BME280;2057;50.858;6.572;2023-03-19T11:58:42;100179.19;;;14.61;85.33
4085;BME280;2057;50.858;6.572;2023-03-19T12:01:25;100174.19;;;14.64;84.13
4085;BME280;2057;50.858;6.572;2023-03-19T12:04:35;100174.19;;;14.64;85.43
4085;BME280;2057;50.858;6.572;2023-03-19T12:10:19;100168.63;;;14.47;85.82
4085;BME280;2057;50.858;6.572;2023-03-19T12:15:31;100172.31;;;14.28;86.83
4085;BME280;2057;50.858;6.572;2023-03-19T12:24:11;100169.91;;;14.33;86.17
4085;BME280;2057;50.858;6.572;2023-03-19T12:29:22;100169.25;;;14.40;86.95
4085;BME280;2057;50.858;6.572;2023-03-19T12:31:59;100175.97;;;14.36;86.15
4085;BME280;2057;50.858;6.572;2023-03-19T12:34:37;100167.09;;;14.23;86.32
4085;BME280;2057;50.858;6.572;2023-03-19T12:37:35;100178.88;;;14.18;88.66
4085;BME280;2057;50.858;6.572;2023-03-19T12:42:47;100170.25;;;14.15;87.29
4085;BME280;2057;50.858;6.572;2023-03-19T12:45:25;100169.25;;;14.09;88.33
4085;BME280;2057;50.858;6.572;2023-03-19T12:48:06;100172.44;;;14.02;89.37
4085;BME280;2057;50.858;6.572;2023-03-19T12:50:36;100172.44;;;14.02;88.79
4085;BME280;2057;50.858;6.572;2023-03-19T12:53:08;100185.56;;;13.86;90.84
4085;BME280;2057;50.858;6.572;2023-03-19T12:55:42;100188.09;;;13.86;95.50
4085;BME280;2057;50.858;6.572;2023-03-19T13:00:44;100176.44;;;13.65;98.20
4085;BME280;2057;50.858;6.572;2023-03-19T13:08:32;100176.09;;;13.82;100.00
4085;BME280;2057;50.858;6.572;2023-03-19T13:11:03;100178.28;;;13.71;100.00
4085;BME280;2057;50.858;6.572;2023-03-19T13:16:19;100173.88;;;13.65;99.39
4085;BME280;2057;50.858;6.572;2023-03-19T13:19:09;100174.34;;;13.80;99.68
4085;BME280;2057;50.858;6.572;2023-03-19T13:21:39;100177.81;;;14.11;99.29
4085;BME280;2057;50.858;6.572;2023-03-19T13:24:17;100171.50;;;14.59;100.00
4085;BME280;2057;50.858;6.572;2023-03-19T13:26:46;100162.66;;;15.11;99.33
4085;BME280;2057;50.858;6.572;2023-03-19T13:29:23;100163.63;;;15.52;98.71
4085;BME280;2057;50.858;6.572;2023-03-19T13:31:50;100168.38;;;15.74;95.57
4085;BME280;2057;50.858;6.572;2023-03-19T13:36:41;100168.44;;;15.03;90.76
4085;BME280;2057;50.858;6.572;2023-03-19T13:39:19;100171.34;;;14.84;96.81
4085;BME280;2057;50.858;6.572;2023-03-19T13:45:24;100168.66;;;14.49;92.54
4085;BME280;2057;50.858;6.572;2023-03-19T13:47:49;100167.31;;;14.31;94.03
4085;BME280;2057;50.858;6.572;2023-03-19T13:55:28;100163.19;;;14.36;88.82
4085;BME280;2057;50.858;6.572;2023-03-19T14:03:23;100165.84;;;14.09;91.65
4085;BME280;2057;50.858;6.572;2023-03-19T14:05:52;100166.97;;;14.19;91.95
4085;BME280;2057;50.858;6.572;2023-03-19T14:08:30;100161.78;;;14.16;91.58
4085;BME280;2057;50.858;6.572;2023-03-19T14:11:01;100162.28;;;14.04;95.21
4085;BME280;2057;50.858;6.572;2023-03-19T14:13:46;100170.69;;;14.01;95.38
4085;BME280;2057;50.858;6.572;2023-03-19T14:16:35;100169.47;;;13.88;97.51
4085;BME280;2057;50.858;6.572;2023-03-19T14:19:03;100173.03;;;13.66;98.73
4085;BME280;2057;50.858;6.572;2023-03-19T14:21:41;100170.22;;;13.57;100.00
4085;BME280;2057;50.858;6.572;2023-03-19T14:24:37;100176.59;;;13.44;100.00
4085;BME280;2057;50.858;6.572;2023-03-19T14:27:16;100178.38;;;13.21;100.00
4085;BME280;2057;50.858;6.572;2023-03-19T14:29:43;100175.22;;;13.28;100.00
4085;BME280;2057;50.858;6.572;2023-03-19T14:32:22;100175.09;;;13.25;100.00
4085;BME280;2057;50.858;6.572;2023-03-19T14:34:50;100178.06;;;13.11;100.00
4085;BME280;2057;50.858;6.572;2023-03-19T14:37:22;100179.00;;;13.13;100.00
4085;BME280;2057;50.858;6.572;2023-03-19T14:40:02;100183.00;;;13.07;100.00
4085;BME280;2057;50.858;6.572;2023-03-19T14:42:39;100183.56;;;13.24;100.00
4085;BME280;2057;50.858;6.572;2023-03-19T14:51:05;100196.94;;;13.42;99.30
4085;BME280;2057;50.858;6.572;2023-03-19T14:56:31;100189.13;;;13.38;99.75
4085;BME280;2057;50.858;6.572;2023-03-19T14:58:57;100191.03;;;13.43;100.00
4085;BME280;2057;50.858;6.572;2023-03-19T15:01:28;100196.03;;;13.40;100.00
4085;BME280;2057;50.858;6.572;2023-03-19T15:04:00;100194.91;;;13.58;100.00
4085;BME280;2057;50.858;6.572;2023-03-19T15:06:32;100204.91;;;13.52;100.00